sensor_id;sensor_type;location;lat;lon;timestamp;pressure;altitude;pressure_sealevel;temperature;humidity
11415;BME280;5763;42.714;23.244;2023-03-16T00:02:01;93727.09;;;5.49;74.25
11415;BME280;5763;42.714;23.244;2023-03-16T00:04:28;93736.97;;;5.56;74.54
11415;BME280;5763;42.714;23.244;2023-03-16T00:06:56;93726.81;;;5.47;74.54
11415;BME280;5763;42.714;23.244;2023-03-16T00:09:24;93740.13;;;5.54;73.99
11415;BME280;5763;42.714;23.244;2023-03-16T00:11:55;93735.53;;;5.30;74.86
11415;BME280;5763;42.714;23.244;2023-03-16T00:14:22;93744.19;;;5.37;74.76
11415;BME280;5763;42.714;23.244;2023-03-16T00:16:49;93739.72;;;5.43;74.81
11415;BME280;5763;42.714;23.244;2023-03-16T00:19:15;93751.53;;;5.49;74.04
11415;BME280;5763;42.714;23.244;2023-03-16T00:21:42;93747.50;;;5.54;74.49
11415;BME280;5763;42.714;23.244;2023-03-16T00:24:09;93743.59;;;5.55;74.03
11415;BME280;5763;42.714;23.244;2023-03-16T00:26:38;93754.22;;;5.49;74.05
11415;BME280;5763;42.714;23.244;2023-03-16T00:29:06;93746.00;;;5.53;73.72
11415;BME280;5763;42.714;23.244;2023-03-16T00:31:33;93748.06;;;5.49;73.61
11415;BME280;5763;42.714;23.244;2023-03-16T00:34:00;93751.84;;;5.51;74.06
11415;BME280;5763;42.714;23.244;2023-03-16T00:36:27;93755.19;;;5.55;73.83
11415;BME280;5763;42.714;23.244;2023-03-16T00:38:54;93757.41;;;5.48;73.63
11415;BME280;5763;42.714;23.244;2023-03-16T00:41:21;93763.41;;;5.43;73.79
11415;BME280;5763;42.714;23.244;2023-03-16T00:43:49;93754.09;;;5.31;74.19
11415;BME280;5763;42.714;23.244;2023-03-16T00:46:18;93765.03;;;5.40;74.81
11415;BME280;5763;42.714;23.244;2023-03-16T00:48:51;93763.31;;;5.34;74.34
11415;BME280;5763;42.714;23.244;2023-03-16T00:51:18;93763.88;;;5.29;74.30
11415;BME280;5763;42.714;23.244;2023-03-16T00:53:47;93762.44;;;5.24;74.54
11415;BME280;5763;42.714;23.244;2023-03-16T00:56:15;93757.19;;;5.08;74.92
11415;BME280;5763;42.714;23.244;2023-03-16T00:58:42;93765.44;;;5.05;75.36
11415;BME280;5763;42.714;23.244;2023-03-16T01:01:13;93765.22;;;5.12;74.50
11415;BME280;5763;42.714;23.244;2023-03-16T01:03:40;93761.75;;;5.11;74.81
11415;BME280;5763;42.714;23.244;2023-03-16T01:06:09;93759.56;;;5.06;73.64
11415;BME280;5763;42.714;23.244;2023-03-16T01:08:36;93762.28;;;5.06;74.06
11415;BME280;5763;42.714;23.244;2023-03-16T01:11:03;93760.69;;;4.96;73.32
11415;BME280;5763;42.714;23.244;2023-03-16T01:13:30;93764.78;;;4.88;72.95
11415;BME280;5763;42.714;23.244;2023-03-16T01:15:58;93772.38;;;4.93;73.10
11415;BME280;5763;42.714;23.244;2023-03-16T01:18:27;93769.78;;;4.90;73.07
11415;BME280;5763;42.714;23.244;2023-03-16T01:20:54;93780.97;;;4.92;72.49
11415;BME280;5763;42.714;23.244;2023-03-16T01:23:20;93766.34;;;4.89;72.97
11415;BME280;5763;42.714;23.244;2023-03-16T01:25:47;93762.22;;;4.85;72.57
11415;BME280;5763;42.714;23.244;2023-03-16T01:28:18;93769.25;;;4.95;71.81
11415;BME280;5763;42.714;23.244;2023-03-16T01:30:45;93768.59;;;4.91;71.73
11415;BME280;5763;42.714;23.244;2023-03-16T01:33:12;93773.94;;;4.82;72.39
11415;BME280;5763;42.714;23.244;2023-03-16T01:35:41;93779.13;;;4.76;72.93
11415;BME280;5763;42.714;23.244;2023-03-16T01:38:08;93776.41;;;4.76;73.24
11415;BME280;5763;42.714;23.244;2023-03-16T01:40:34;93785.75;;;4.75;72.85
11415;BME280;5763;42.714;23.244;2023-03-16T01:43:03;93779.78;;;4.80;72.85
11415;BME280;5763;42.714;23.244;2023-03-16T01:46:06;93795.91;;;4.84;72.71
11415;BME280;5763;42.714;23.244;2023-03-16T01:48:37;93781.19;;;4.72;73.72
11415;BME280;5763;42.714;23.244;2023-03-16T01:51:11;93791.38;;;4.68;73.98
11415;BME280;5763;42.714;23.244;2023-03-16T01:53:43;93787.91;;;4.68;74.25
11415;BME280;5763;42.714;23.244;2023-03-16T01:56:14;93809.69;;;4.64;74.13
11415;BME280;5763;42.714;23.244;2023-03-16T01:58:43;93794.97;;;4.65;74.37
11415;BME280;5763;42.714;23.244;2023-03-16T02:01:11;93795.72;;;4.66;74.18
11415;BME280;5763;42.714;23.244;2023-03-16T02:03:38;93792.56;;;4.55;75.58
11415;BME280;5763;42.714;23.244;2023-03-16T02:06:11;93799.94;;;4.54;76.25
11415;BME280;5763;42.714;23.244;2023-03-16T02:08:41;93801.00;;;4.44;76.97
11415;BME280;5763;42.714;23.244;2023-03-16T02:11:10;93819.88;;;4.48;77.29
11415;BME280;5763;42.714;23.244;2023-03-16T02:13:37;93777.91;;;4.15;77.94
11415;BME280;5763;42.714;23.244;2023-03-16T02:16:05;93814.66;;;4.28;78.61
11415;BME280;5763;42.714;23.244;2023-03-16T02:18:33;93815.38;;;4.29;78.92
11415;BME280;5763;42.714;23.244;2023-03-16T02:21:05;93816.66;;;4.12;79.79
11415;BME280;5763;42.714;23.244;2023-03-16T02:23:36;93823.06;;;4.18;80.53
11415;BME280;5763;42.714;23.244;2023-03-16T02:26:07;93827.72;;;4.17;80.46
11415;BME280;5763;42.714;23.244;2023-03-16T02:28:41;93828.56;;;4.14;80.84
11415;BME280;5763;42.714;23.244;2023-03-16T02:31:14;93834.72;;;4.02;81.14
11415;BME280;5763;42.714;23.244;2023-03-16T02:33:43;93832.34;;;4.04;81.27
11415;BME280;5763;42.714;23.244;2023-03-16T02:36:11;93836.56;;;4.05;81.29
11415;BME280;5763;42.714;23.244;2023-03-16T02:38:39;93839.59;;;4.07;81.78
11415;BME280;5763;42.714;23.244;2023-03-16T02:41:11;93844.50;;;4.12;81.24
11415;BME280;5763;42.714;23.244;2023-03-16T02:43:41;93848.38;;;4.11;80.87
11415;BME280;5763;42.714;23.244;2023-03-16T02:46:10;93844.56;;;4.09;81.30
11415;BME280;5763;42.714;23.244;2023-03-16T02:48:42;93846.53;;;4.08;80.68
11415;BME280;5763;42.714;23.244;2023-03-16T02:51:11;93843.41;;;4.10;80.71
11415;BME280;5763;42.714;23.244;2023-03-16T02:53:38;93844.22;;;3.94;81.27
11415;BME280;5763;42.714;23.244;2023-03-16T02:56:05;93846.38;;;3.99;80.92
11415;BME280;5763;42.714;23.244;2023-03-16T02:58:32;93844.25;;;4.07;80.50
11415;BME280;5763;42.714;23.244;2023-03-16T03:00:59;93859.19;;;4.11;79.23
11415;BME280;5763;42.714;23.244;2023-03-16T03:03:26;93841.19;;;3.92;79.15
11415;BME280;5763;42.714;23.244;2023-03-16T03:05:54;93857.50;;;3.89;79.23
11415;BME280;5763;42.714;23.244;2023-03-16T03:08:21;93845.78;;;3.79;80.59
11415;BME280;5763;42.714;23.244;2023-03-16T03:10:48;93850.88;;;3.77;80.55
11415;BME280;5763;42.714;23.244;2023-03-16T03:13:15;93863.28;;;3.75;80.71
11415;BME280;5763;42.714;23.244;2023-03-16T03:15:42;93867.94;;;3.74;80.95
11415;BME280;5763;42.714;23.244;2023-03-16T03:18:09;93871.00;;;3.76;80.46
11415;BME280;5763;42.714;23.244;2023-03-16T03:20:36;93876.47;;;3.73;80.10
11415;BME280;5763;42.714;23.244;2023-03-16T03:23:04;93879.28;;;3.69;80.41
11415;BME280;5763;42.714;23.244;2023-03-16T03:25:31;93863.75;;;3.57;80.88
11415;BME280;5763;42.714;23.244;2023-03-16T03:27:59;93890.50;;;3.68;79.89
11415;BME280;5763;42.714;23.244;2023-03-16T03:30:27;93888.31;;;3.63;80.40
11415;BME280;5763;42.714;23.244;2023-03-16T03:32:54;93888.72;;;3.77;80.83
11415;BME280;5763;42.714;23.244;2023-03-16T03:35:21;93884.44;;;3.64;79.98
11415;BME280;5763;42.714;23.244;2023-03-16T03:37:49;93883.09;;;3.56;80.04
11415;BME280;5763;42.714;23.244;2023-03-16T03:40:18;93894.00;;;3.52;79.32
11415;BME280;5763;42.714;23.244;2023-03-16T03:42:45;93890.31;;;3.46;79.86
11415;BME280;5763;42.714;23.244;2023-03-16T03:45:13;93896.34;;;3.50;80.06
11415;BME280;5763;42.714;23.244;2023-03-16T03:47:41;93899.75;;;3.38;79.69
11415;BME280;5763;42.714;23.244;2023-03-16T03:50:10;93893.66;;;3.34;79.85
11415;BME280;5763;42.714;23.244;2023-03-16T03:52:38;93894.75;;;3.53;78.84
11415;BME280;5763;42.714;23.244;2023-03-16T03:55:05;93903.91;;;3.59;78.37
11415;BME280;5763;42.714;23.244;2023-03-16T03:57:34;93904.22;;;3.45;77.34
11415;BME280;5763;42.714;23.244;2023-03-16T04:00:00;93903.91;;;3.59;77.79
11415;BME280;5763;42.714;23.244;2023-03-16T04:02:28;93920.13;;;3.59;77.64
11415;BME280;5763;42.714;23.244;2023-03-16T04:04:55;93913.00;;;3.65;77.35
11415;BME280;5763;42.714;23.244;2023-03-16T04:07:21;93918.13;;;3.75;77.42
11415;BME280;5763;42.714;23.244;2023-03-16T04:09:48;93925.75;;;3.80;76.82
11415;BME280;5763;42.714;23.244;2023-03-16T04:12:15;93918.06;;;3.79;76.31
11415;BME280;5763;42.714;23.244;2023-03-16T04:14:44;93925.09;;;3.76;76.56
11415;BME280;5763;42.714;23.244;2023-03-16T04:17:10;93924.75;;;3.74;76.11
11415;BME280;5763;42.714;23.244;2023-03-16T04:19:38;93919.69;;;3.76;75.96
11415;BME280;5763;42.714;23.244;2023-03-16T04:22:05;93920.44;;;3.77;75.83
11415;BME280;5763;42.714;23.244;2023-03-16T04:24:32;93932.13;;;3.74;75.60
11415;BME280;5763;42.714;23.244;2023-03-16T04:26:59;93934.22;;;3.82;75.56
11415;BME280;5763;42.714;23.244;2023-03-16T04:29:27;93927.72;;;3.80;75.52
11415;BME280;5763;42.714;23.244;2023-03-16T04:31:55;93939.47;;;3.73;75.57
11415;BME280;5763;42.714;23.244;2023-03-16T04:34:22;93948.94;;;3.81;75.56
11415;BME280;5763;42.714;23.244;2023-03-16T04:36:49;93934.13;;;3.70;76.43
11415;BME280;5763;42.714;23.244;2023-03-16T04:39:16;93952.06;;;3.80;76.68
11415;BME280;5763;42.714;23.244;2023-03-16T04:41:43;93958.22;;;3.80;76.91
11415;BME280;5763;42.714;23.244;2023-03-16T04:44:10;93959.22;;;3.86;76.52
11415;BME280;5763;42.714;23.244;2023-03-16T04:46:37;93952.16;;;3.76;76.03
11415;BME280;5763;42.714;23.244;2023-03-16T04:49:05;93971.66;;;3.84;76.47
11415;BME280;5763;42.714;23.244;2023-03-16T04:51:34;93964.56;;;3.74;75.96
11415;BME280;5763;42.714;23.244;2023-03-16T04:54:02;93967.78;;;3.69;76.64
11415;BME280;5763;42.714;23.244;2023-03-16T04:56:29;93970.50;;;3.69;77.05
11415;BME280;5763;42.714;23.244;2023-03-16T04:58:56;93972.00;;;3.70;77.21
11415;BME280;5763;42.714;23.244;2023-03-16T05:01:23;93968.03;;;3.58;77.02
11415;BME280;5763;42.714;23.244;2023-03-16T05:03:50;93972.84;;;3.51;76.78
11415;BME280;5763;42.714;23.244;2023-03-16T05:06:18;93940.66;;;3.40;77.17
11415;BME280;5763;42.714;23.244;2023-03-16T05:08:45;93969.31;;;3.70;76.70
11415;BME280;5763;42.714;23.244;2023-03-16T05:11:13;93970.22;;;3.63;76.28
11415;BME280;5763;42.714;23.244;2023-03-16T05:13:40;93980.13;;;3.70;76.29
11415;BME280;5763;42.714;23.244;2023-03-16T05:16:06;93992.69;;;3.60;76.63
11415;BME280;5763;42.714;23.244;2023-03-16T05:18:33;93995.41;;;3.44;76.15
11415;BME280;5763;42.714;23.244;2023-03-16T05:21:00;93990.06;;;3.41;77.37
11415;BME280;5763;42.714;23.244;2023-03-16T05:23:28;93991.47;;;3.29;77.63
11415;BME280;5763;42.714;23.244;2023-03-16T05:25:55;93997.94;;;3.35;78.21
11415;BME280;5763;42.714;23.244;2023-03-16T05:28:24;94010.09;;;3.43;78.26
11415;BME280;5763;42.714;23.244;2023-03-16T05:30:51;94010.28;;;3.36;78.87
11415;BME280;5763;42.714;23.244;2023-03-16T05:33:18;94003.34;;;3.35;78.54
11415;BME280;5763;42.714;23.244;2023-03-16T05:35:45;94017.38;;;3.46;78.51
11415;BME280;5763;42.714;23.244;2023-03-16T05:38:13;94007.16;;;3.38;78.76
11415;BME280;5763;42.714;23.244;2023-03-16T05:40:41;94003.88;;;3.46;78.68
11415;BME280;5763;42.714;23.244;2023-03-16T05:43:08;94027.19;;;3.56;78.17
11415;BME280;5763;42.714;23.244;2023-03-16T05:45:35;94019.75;;;3.60;78.27
11415;BME280;5763;42.714;23.244;2023-03-16T05:48:02;94027.72;;;3.67;77.65
11415;BME280;5763;42.714;23.244;2023-03-16T05:50:31;94017.53;;;3.55;77.96
11415;BME280;5763;42.714;23.244;2023-03-16T05:52:58;94020.69;;;3.70;77.85
11415;BME280;5763;42.714;23.244;2023-03-16T05:55:25;94036.16;;;3.85;76.99
11415;BME280;5763;42.714;23.244;2023-03-16T05:57:54;94038.34;;;3.74;77.31
11415;BME280;5763;42.714;23.244;2023-03-16T06:00:21;94036.66;;;3.80;76.68
11415;BME280;5763;42.714;23.244;2023-03-16T06:02:50;94040.91;;;3.81;76.61
11415;BME280;5763;42.714;23.244;2023-03-16T06:05:19;94046.06;;;3.92;76.25
11415;BME280;5763;42.714;23.244;2023-03-16T06:07:47;94048.00;;;3.91;76.63
11415;BME280;5763;42.714;23.244;2023-03-16T06:10:15;94041.25;;;3.83;75.74
11415;BME280;5763;42.714;23.244;2023-03-16T06:12:44;94047.00;;;3.85;75.91
11415;BME280;5763;42.714;23.244;2023-03-16T06:15:13;94047.00;;;3.85;75.41
11415;BME280;5763;42.714;23.244;2023-03-16T06:17:40;94048.25;;;3.81;75.07
11415;BME280;5763;42.714;23.244;2023-03-16T06:20:09;94062.47;;;3.85;74.89
11415;BME280;5763;42.714;23.244;2023-03-16T06:22:37;94062.03;;;3.86;74.67
11415;BME280;5763;42.714;23.244;2023-03-16T06:25:06;94053.69;;;3.97;74.88
11415;BME280;5763;42.714;23.244;2023-03-16T06:27:34;94054.28;;;4.04;74.56
11415;BME280;5763;42.714;23.244;2023-03-16T06:30:02;94058.16;;;4.03;74.32
11415;BME280;5763;42.714;23.244;2023-03-16T06:32:30;94072.88;;;4.02;73.54
11415;BME280;5763;42.714;23.244;2023-03-16T06:34:58;94076.75;;;4.01;73.39
11415;BME280;5763;42.714;23.244;2023-03-16T06:37:26;94086.38;;;3.86;74.14
11415;BME280;5763;42.714;23.244;2023-03-16T06:39:54;94088.25;;;3.89;74.54
11415;BME280;5763;42.714;23.244;2023-03-16T06:42:21;94088.03;;;3.84;74.75
11415;BME280;5763;42.714;23.244;2023-03-16T06:44:48;94087.06;;;3.90;74.34
11415;BME280;5763;42.714;23.244;2023-03-16T06:47:15;94096.19;;;3.96;74.80
11415;BME280;5763;42.714;23.244;2023-03-16T06:49:44;94102.88;;;3.92;75.06
11415;BME280;5763;42.714;23.244;2023-03-16T06:52:12;94100.84;;;3.80;75.78
11415;BME280;5763;42.714;23.244;2023-03-16T06:54:40;94090.97;;;3.89;76.33
11415;BME280;5763;42.714;23.244;2023-03-16T06:57:07;94103.66;;;3.92;75.80
11415;BME280;5763;42.714;23.244;2023-03-16T06:59:34;94111.50;;;3.87;76.74
11415;BME280;5763;42.714;23.244;2023-03-16T07:02:01;94122.75;;;3.85;76.90
11415;BME280;5763;42.714;23.244;2023-03-16T07:04:28;94110.75;;;3.86;77.85
11415;BME280;5763;42.714;23.244;2023-03-16T07:06:56;94121.41;;;3.93;77.58
11415;BME280;5763;42.714;23.244;2023-03-16T07:09:23;94118.81;;;3.90;77.53
11415;BME280;5763;42.714;23.244;2023-03-16T07:11:50;94129.28;;;4.04;77.72
11415;BME280;5763;42.714;23.244;2023-03-16T07:14:18;94124.56;;;4.08;76.03
11415;BME280;5763;42.714;23.244;2023-03-16T07:16:47;94133.25;;;3.99;76.75
11415;BME280;5763;42.714;23.244;2023-03-16T07:19:14;94125.97;;;3.96;76.26
11415;BME280;5763;42.714;23.244;2023-03-16T07:21:41;94129.03;;;3.98;76.52
11415;BME280;5763;42.714;23.244;2023-03-16T07:24:11;94136.91;;;4.09;75.87
11415;BME280;5763;42.714;23.244;2023-03-16T07:26:41;94135.47;;;4.04;74.33
11415;BME280;5763;42.714;23.244;2023-03-16T07:29:09;94131.25;;;4.19;74.35
11415;BME280;5763;42.714;23.244;2023-03-16T07:31:36;94140.72;;;4.11;72.83
11415;BME280;5763;42.714;23.244;2023-03-16T07:34:04;94141.56;;;4.24;73.20
11415;BME280;5763;42.714;23.244;2023-03-16T07:36:31;94151.53;;;4.27;72.38
11415;BME280;5763;42.714;23.244;2023-03-16T07:39:00;94142.31;;;4.09;72.89
11415;BME280;5763;42.714;23.244;2023-03-16T07:41:32;94143.34;;;4.15;73.05
11415;BME280;5763;42.714;23.244;2023-03-16T07:44:00;94144.88;;;4.16;72.16
11415;BME280;5763;42.714;23.244;2023-03-16T07:46:27;94147.81;;;4.21;71.86
11415;BME280;5763;42.714;23.244;2023-03-16T07:48:54;94155.53;;;4.39;72.45
11415;BME280;5763;42.714;23.244;2023-03-16T07:51:21;94156.63;;;4.41;71.90
11415;BME280;5763;42.714;23.244;2023-03-16T07:53:49;94161.22;;;4.60;71.71
11415;BME280;5763;42.714;23.244;2023-03-16T07:56:16;94160.38;;;4.63;71.19
11415;BME280;5763;42.714;23.244;2023-03-16T07:58:45;94167.47;;;4.57;71.13
11415;BME280;5763;42.714;23.244;2023-03-16T08:01:15;94159.34;;;4.57;70.91
11415;BME280;5763;42.714;23.244;2023-03-16T08:03:42;94144.69;;;4.55;71.02
11415;BME280;5763;42.714;23.244;2023-03-16T08:06:10;94149.59;;;4.60;71.02
11415;BME280;5763;42.714;23.244;2023-03-16T08:08:38;94164.94;;;4.66;70.27
11415;BME280;5763;42.714;23.244;2023-03-16T08:11:05;94148.84;;;4.59;70.22
11415;BME280;5763;42.714;23.244;2023-03-16T08:13:32;94164.94;;;4.66;70.20
11415;BME280;5763;42.714;23.244;2023-03-16T08:16:01;94170.16;;;4.73;70.40
11415;BME280;5763;42.714;23.244;2023-03-16T08:18:31;94179.66;;;4.65;69.33
11415;BME280;5763;42.714;23.244;2023-03-16T08:20:59;94168.41;;;4.67;70.13
11415;BME280;5763;42.714;23.244;2023-03-16T08:23:27;94182.78;;;4.64;69.80
11415;BME280;5763;42.714;23.244;2023-03-16T08:25:56;94185.00;;;4.69;69.18
11415;BME280;5763;42.714;23.244;2023-03-16T08:28:26;94174.75;;;4.76;68.71
11415;BME280;5763;42.714;23.244;2023-03-16T08:30:53;94180.56;;;4.91;68.86
11415;BME280;5763;42.714;23.244;2023-03-16T08:33:22;94188.84;;;5.00;68.10
11415;BME280;5763;42.714;23.244;2023-03-16T08:35:50;94183.00;;;5.01;67.21
11415;BME280;5763;42.714;23.244;2023-03-16T08:38:17;94198.78;;;5.06;67.71
11415;BME280;5763;42.714;23.244;2023-03-16T08:40:44;94188.13;;;4.99;67.31
11415;BME280;5763;42.714;23.244;2023-03-16T08:43:15;94197.34;;;5.02;67.12
11415;BME280;5763;42.714;23.244;2023-03-16T08:45:44;94194.41;;;4.80;67.12
11415;BME280;5763;42.714;23.244;2023-03-16T08:48:11;94182.78;;;4.80;66.89
11415;BME280;5763;42.714;23.244;2023-03-16T08:50:41;94204.03;;;4.81;66.78
11415;BME280;5763;42.714;23.244;2023-03-16T08:53:11;94200.66;;;4.77;66.92
11415;BME280;5763;42.714;23.244;2023-03-16T08:55:39;94203.38;;;4.61;66.83
11415;BME280;5763;42.714;23.244;2023-03-16T08:58:07;94207.28;;;4.60;67.54
11415;BME280;5763;42.714;23.244;2023-03-16T09:00:35;94207.09;;;4.51;67.05
11415;BME280;5763;42.714;23.244;2023-03-16T09:03:03;94211.81;;;4.47;68.06
11415;BME280;5763;42.714;23.244;2023-03-16T09:05:30;94202.19;;;4.62;66.74
11415;BME280;5763;42.714;23.244;2023-03-16T09:07:59;94203.13;;;4.72;66.89
11415;BME280;5763;42.714;23.244;2023-03-16T09:10:26;94201.84;;;4.60;66.62
11415;BME280;5763;42.714;23.244;2023-03-16T09:12:56;94210.38;;;4.75;66.42
11415;BME280;5763;42.714;23.244;2023-03-16T09:15:25;94206.25;;;4.70;66.11
11415;BME280;5763;42.714;23.244;2023-03-16T09:17:55;94208.88;;;4.74;66.30
11415;BME280;5763;42.714;23.244;2023-03-16T09:20:24;94213.53;;;4.73;67.09
11415;BME280;5763;42.714;23.244;2023-03-16T09:22:51;94208.09;;;4.73;67.17
11415;BME280;5763;42.714;23.244;2023-03-16T09:25:20;94210.47;;;4.71;67.17
11415;BME280;5763;42.714;23.244;2023-03-16T09:27:46;94216.31;;;4.70;66.57
11415;BME280;5763;42.714;23.244;2023-03-16T09:30:14;94209.28;;;4.72;67.16
11415;BME280;5763;42.714;23.244;2023-03-16T09:32:41;94219.91;;;4.67;67.42
11415;BME280;5763;42.714;23.244;2023-03-16T09:35:08;94214.72;;;4.72;67.10
11415;BME280;5763;42.714;23.244;2023-03-16T09:37:34;94208.28;;;4.82;67.44
11415;BME280;5763;42.714;23.244;2023-03-16T09:40:02;94214.38;;;4.70;67.39
11415;BME280;5763;42.714;23.244;2023-03-16T09:42:34;94219.97;;;4.63;68.28
11415;BME280;5763;42.714;23.244;2023-03-16T09:45:11;94216.69;;;4.72;68.63
11415;BME280;5763;42.714;23.244;2023-03-16T09:47:40;94224.94;;;4.81;68.94
11415;BME280;5763;42.714;23.244;2023-03-16T09:50:14;94226.91;;;4.96;68.47
11415;BME280;5763;42.714;23.244;2023-03-16T09:52:47;94220.47;;;5.06;67.30
11415;BME280;5763;42.714;23.244;2023-03-16T09:55:24;94223.56;;;5.21;65.94
11415;BME280;5763;42.714;23.244;2023-03-16T09:57:54;94233.56;;;5.24;66.44
11415;BME280;5763;42.714;23.244;2023-03-16T10:00:24;94232.06;;;5.23;66.09
11415;BME280;5763;42.714;23.244;2023-03-16T10:03:01;94225.75;;;5.26;65.99
11415;BME280;5763;42.714;23.244;2023-03-16T10:05:32;94229.06;;;5.33;64.93
11415;BME280;5763;42.714;23.244;2023-03-16T10:08:11;94223.16;;;5.22;65.48
11415;BME280;5763;42.714;23.244;2023-03-16T10:10:52;94225.16;;;5.34;66.27
11415;BME280;5763;42.714;23.244;2023-03-16T10:13:31;94223.31;;;5.31;65.56
11415;BME280;5763;42.714;23.244;2023-03-16T10:16:03;94212.88;;;5.30;64.23
11415;BME280;5763;42.714;23.244;2023-03-16T10:18:38;94230.72;;;5.43;65.96
11415;BME280;5763;42.714;23.244;2023-03-16T10:21:11;94229.34;;;5.51;64.28
11415;BME280;5763;42.714;23.244;2023-03-16T10:23:41;94226.28;;;5.49;64.12
11415;BME280;5763;42.714;23.244;2023-03-16T10:26:13;94236.41;;;5.49;65.00
11415;BME280;5763;42.714;23.244;2023-03-16T10:28:44;94229.63;;;5.41;64.69
11415;BME280;5763;42.714;23.244;2023-03-16T10:31:15;94220.22;;;5.45;65.32
11415;BME280;5763;42.714;23.244;2023-03-16T10:33:43;94219.50;;;5.29;65.49
11415;BME280;5763;42.714;23.244;2023-03-16T10:36:13;94230.66;;;5.31;65.14
11415;BME280;5763;42.714;23.244;2023-03-16T10:38:44;94232.75;;;5.39;65.25
11415;BME280;5763;42.714;23.244;2023-03-16T10:41:22;94233.00;;;5.45;65.39
11415;BME280;5763;42.714;23.244;2023-03-16T10:43:53;94232.00;;;5.39;64.23
11415;BME280;5763;42.714;23.244;2023-03-16T10:46:22;94233.22;;;5.38;64.82
11415;BME280;5763;42.714;23.244;2023-03-16T10:48:53;94229.34;;;5.51;64.32
11415;BME280;5763;42.714;23.244;2023-03-16T10:51:26;94237.63;;;5.60;63.60
11415;BME280;5763;42.714;23.244;2023-03-16T10:53:56;94232.88;;;5.64;63.75
11415;BME280;5763;42.714;23.244;2023-03-16T10:56:32;94225.34;;;5.56;62.69
11415;BME280;5763;42.714;23.244;2023-03-16T10:59:01;94236.50;;;5.45;62.15
11415;BME280;5763;42.714;23.244;2023-03-16T11:01:29;94222.00;;;5.36;64.03
11415;BME280;5763;42.714;23.244;2023-03-16T11:03:58;94225.41;;;5.68;63.53
11415;BME280;5763;42.714;23.244;2023-03-16T11:06:26;94228.94;;;5.65;63.26
11415;BME280;5763;42.714;23.244;2023-03-16T11:09:02;94228.06;;;5.56;63.41
11415;BME280;5763;42.714;23.244;2023-03-16T11:11:33;94229.25;;;5.55;63.54
11415;BME280;5763;42.714;23.244;2023-03-16T11:14:08;94231.06;;;5.45;63.49
11415;BME280;5763;42.714;23.244;2023-03-16T11:16:39;94220.25;;;5.29;63.39
11415;BME280;5763;42.714;23.244;2023-03-16T11:19:15;94226.50;;;5.42;63.10
11415;BME280;5763;42.714;23.244;2023-03-16T11:21:46;94249.44;;;5.54;63.09
11415;BME280;5763;42.714;23.244;2023-03-16T11:24:24;94240.31;;;5.48;62.54
11415;BME280;5763;42.714;23.244;2023-03-16T11:26:55;94248.38;;;5.35;63.50
11415;BME280;5763;42.714;23.244;2023-03-16T11:29:27;94230.25;;;5.32;63.85
11415;BME280;5763;42.714;23.244;2023-03-16T11:32:01;94231.28;;;5.51;63.75
11415;BME280;5763;42.714;23.244;2023-03-16T11:34:31;94231.81;;;5.46;62.94
11415;BME280;5763;42.714;23.244;2023-03-16T11:37:04;94237.97;;;5.34;63.67
11415;BME280;5763;42.714;23.244;2023-03-16T11:39:44;94239.81;;;5.37;64.53
11415;BME280;5763;42.714;23.244;2023-03-16T11:42:22;94238.88;;;5.43;63.95
11415;BME280;5763;42.714;23.244;2023-03-16T11:45:00;94240.31;;;5.32;64.00
11415;BME280;5763;42.714;23.244;2023-03-16T11:47:55;94188.19;;;5.12;64.45
11415;BME280;5763;42.714;23.244;2023-03-16T11:50:28;94235.34;;;5.30;64.14
11415;BME280;5763;42.714;23.244;2023-03-16T11:53:03;94238.72;;;5.34;64.68
11415;BME280;5763;42.714;23.244;2023-03-16T11:55:42;94243.44;;;5.46;64.45
11415;BME280;5763;42.714;23.244;2023-03-16T11:58:21;94241.25;;;5.41;63.67
11415;BME280;5763;42.714;23.244;2023-03-16T12:01:00;94247.88;;;5.40;64.74
11415;BME280;5763;42.714;23.244;2023-03-16T12:03:49;94249.38;;;5.41;64.50
11415;BME280;5763;42.714;23.244;2023-03-16T12:06:29;94245.31;;;5.33;64.72
11415;BME280;5763;42.714;23.244;2023-03-16T12:09:19;94251.47;;;5.05;65.15
11415;BME280;5763;42.714;23.244;2023-03-16T12:11:53;94249.88;;;5.08;64.93
11415;BME280;5763;42.714;23.244;2023-03-16T12:14:24;94253.75;;;5.23;65.23
11415;BME280;5763;42.714;23.244;2023-03-16T12:16:57;94269.25;;;5.22;65.29
11415;BME280;5763;42.714;23.244;2023-03-16T12:19:30;94250.34;;;5.19;65.05
11415;BME280;5763;42.714;23.244;2023-03-16T12:22:04;94255.53;;;5.13;64.86
11415;BME280;5763;42.714;23.244;2023-03-16T12:24:38;94253.28;;;5.24;66.05
11415;BME280;5763;42.714;23.244;2023-03-16T12:27:11;94251.72;;;5.11;65.42
11415;BME280;5763;42.714;23.244;2023-03-16T12:29:47;94259.22;;;5.19;65.45
11415;BME280;5763;42.714;23.244;2023-03-16T12:32:28;94276.69;;;5.18;65.93
11415;BME280;5763;42.714;23.244;2023-03-16T12:35:01;94276.97;;;5.24;65.72
11415;BME280;5763;42.714;23.244;2023-03-16T12:37:33;94277.19;;;5.29;65.70
11415;BME280;5763;42.714;23.244;2023-03-16T12:40:13;94241.97;;;4.97;66.20
11415;BME280;5763;42.714;23.244;2023-03-16T12:42:53;94277.47;;;5.19;66.77
11415;BME280;5763;42.714;23.244;2023-03-16T12:45:31;94281.38;;;5.18;67.23
11415;BME280;5763;42.714;23.244;2023-03-16T12:48:08;94292.38;;;5.27;67.54
11415;BME280;5763;42.714;23.244;2023-03-16T12:50:47;94288.31;;;5.19;67.94
11415;BME280;5763;42.714;23.244;2023-03-16T12:53:25;94283.66;;;5.19;68.35
11415;BME280;5763;42.714;23.244;2023-03-16T12:55:53;94278.22;;;5.19;69.86
11415;BME280;5763;42.714;23.244;2023-03-16T12:58:22;94286.88;;;5.14;70.57
11415;BME280;5763;42.714;23.244;2023-03-16T13:00:55;94286.88;;;5.14;71.44
11415;BME280;5763;42.714;23.244;2023-03-16T13:03:26;94294.44;;;5.23;71.39
11415;BME280;5763;42.714;23.244;2023-03-16T13:05:55;94289.44;;;5.21;71.68
11415;BME280;5763;42.714;23.244;2023-03-16T13:08:25;94283.22;;;5.21;71.58
11415;BME280;5763;42.714;23.244;2023-03-16T13:11:04;94289.75;;;5.23;70.86
11415;BME280;5763;42.714;23.244;2023-03-16T13:13:31;94284.91;;;5.31;71.50
11415;BME280;5763;42.714;23.244;2023-03-16T13:16:05;94294.06;;;5.37;70.55
11415;BME280;5763;42.714;23.244;2023-03-16T13:18:37;94297.22;;;5.35;70.83
11415;BME280;5763;42.714;23.244;2023-03-16T13:21:17;94291.78;;;5.35;71.16
11415;BME280;5763;42.714;23.244;2023-03-16T13:24:12;94295.50;;;5.41;71.31